Aérodrome :
LOGIN :

S'inscrire | Disclaimer

   EN    FR    IT 

 










Légende :    VFR   VFR Marginal   IFR   IFR Intensif   IFR Très Intensif
Visi : 
Plafond : 
>= 8 km
>= 3000ft
5 à 8 km
1000 à 3000 ft
1500m à 5 km
500 à 1000 ft
800 à 1500m
200 à 500 ft
< 800m
< 200 ft
Symboles :   Orages  Brouillard  Fortes neiges  Fortes précipitations  Vent > 20 kt
SIGMETs :   Divers  Orages  Givrage  Turbulence  Onde Orograph.  Cendres Volcan.






- Altitude de l'aérodrome : 38 ft
- Code IATA : TRE


EGPU - Tiree

DERNIER METAR :
  • 242020Z AUTO 24015KT 210V280 9999 FEW021/// 07/03 Q1001

METARs EXPIRÉS :
  • 241950Z AUTO 22010KT 190V290 9999 FEW048/// 07/05 Q1001
  • 241920Z AUTO 23011KT 9999 NCD 07/05 Q1001
  • 241850Z AUTO 23009KT 200V260 9999 NCD 07/04 Q1001
  • 241820Z AUTO 23010KT 200V260 9999 FEW024/// 08/05 Q1001 RERA
  • 241750Z AUTO 24006KT 200V260 9999 FEW024/// 07/05 Q1000 RERA

Prévision TAF périmée.



MET'MAP, la Météo Aéronautique d'un coup d'oeil ! - Copyright ORBIFLY Décembre 2007 - Disclaimer

ORBIFLY MET'MAP TEAM :

Programmation & Développement : Alexandra Zaïnal
Sur une idée originale de : Baudouin d'Aumeries
Assistance à la programmation : Marc-Olivier Méhu
Soutien technique & logistique : Manuel Goepfert

Contact : metmap@orbifly.com




SOURCES & CREDITS :

   NOAA